sensor_id;sensor_type;location;lat;lon;timestamp;P1;durP1;ratioP1;P2;durP2;ratioP2
67272;SDS011;54190;49.770;9.250;2023-10-09T00:00:14;5.03;;;2.93;;
67272;SDS011;54190;49.770;9.250;2023-10-09T00:03:00;6.33;;;3.27;;
67272;SDS011;54190;49.770;9.250;2023-10-09T00:05:29;7.57;;;3.37;;
67272;SDS011;54190;49.770;9.250;2023-10-09T00:08:13;4.60;;;2.80;;
67272;SDS011;54190;49.770;9.250;2023-10-09T00:10:58;6.73;;;3.77;;
67272;SDS011;54190;49.770;9.250;2023-10-09T00:13:39;5.80;;;3.10;;
67272;SDS011;54190;49.770;9.250;2023-10-09T00:16:14;4.40;;;2.83;;
67272;SDS011;54190;49.770;9.250;2023-10-09T00:19:03;5.60;;;3.20;;
67272;SDS011;54190;49.770;9.250;2023-10-09T00:21:46;5.40;;;3.20;;
67272;SDS011;54190;49.770;9.250;2023-10-09T00:24:13;8.17;;;3.80;;
67272;SDS011;54190;49.770;9.250;2023-10-09T00:26:47;6.80;;;3.03;;
67272;SDS011;54190;49.770;9.250;2023-10-09T00:29:13;7.63;;;3.80;;
67272;SDS011;54190;49.770;9.250;2023-10-09T00:34:21;5.93;;;3.17;;
67272;SDS011;54190;49.770;9.250;2023-10-09T00:36:48;7.60;;;4.00;;
67272;SDS011;54190;49.770;9.250;2023-10-09T00:39:20;7.23;;;4.07;;
67272;SDS011;54190;49.770;9.250;2023-10-09T00:42:01;8.17;;;3.83;;
67272;SDS011;54190;49.770;9.250;2023-10-09T00:44:31;5.60;;;3.60;;
67272;SDS011;54190;49.770;9.250;2023-10-09T00:47:22;5.67;;;3.43;;
67272;SDS011;54190;49.770;9.250;2023-10-09T00:49:52;5.37;;;3.70;;
67272;SDS011;54190;49.770;9.250;2023-10-09T00:52:25;5.10;;;3.67;;
67272;SDS011;54190;49.770;9.250;2023-10-09T00:55:04;6.87;;;4.53;;
67272;SDS011;54190;49.770;9.250;2023-10-09T00:57:39;5.13;;;3.60;;
67272;SDS011;54190;49.770;9.250;2023-10-09T01:00:10;6.53;;;4.10;;
67272;SDS011;54190;49.770;9.250;2023-10-09T01:03:00;6.73;;;4.10;;
67272;SDS011;54190;49.770;9.250;2023-10-09T01:05:47;6.23;;;3.27;;
67272;SDS011;54190;49.770;9.250;2023-10-09T01:08:22;6.50;;;3.80;;
67272;SDS011;54190;49.770;9.250;2023-10-09T01:11:06;6.27;;;3.53;;
67272;SDS011;54190;49.770;9.250;2023-10-09T01:16:05;7.30;;;4.00;;
67272;SDS011;54190;49.770;9.250;2023-10-09T01:18:31;6.63;;;4.03;;
67272;SDS011;54190;49.770;9.250;2023-10-09T01:21:02;5.13;;;3.77;;
67272;SDS011;54190;49.770;9.250;2023-10-09T01:23:28;7.23;;;4.20;;
67272;SDS011;54190;49.770;9.250;2023-10-09T01:25:55;5.87;;;3.87;;
67272;SDS011;54190;49.770;9.250;2023-10-09T01:28:20;5.43;;;3.53;;
67272;SDS011;54190;49.770;9.250;2023-10-09T01:30:46;7.33;;;3.50;;
67272;SDS011;54190;49.770;9.250;2023-10-09T01:33:12;5.83;;;3.17;;
67272;SDS011;54190;49.770;9.250;2023-10-09T01:36:00;7.13;;;3.83;;
67272;SDS011;54190;49.770;9.250;2023-10-09T01:38:27;5.40;;;3.40;;
67272;SDS011;54190;49.770;9.250;2023-10-09T01:41:07;6.50;;;3.40;;
67272;SDS011;54190;49.770;9.250;2023-10-09T01:43:41;5.60;;;3.33;;
67272;SDS011;54190;49.770;9.250;2023-10-09T01:46:10;7.03;;;4.07;;
67272;SDS011;54190;49.770;9.250;2023-10-09T01:48:45;5.83;;;3.53;;
67272;SDS011;54190;49.770;9.250;2023-10-09T01:51:15;5.90;;;3.80;;
67272;SDS011;54190;49.770;9.250;2023-10-09T01:53:45;8.50;;;4.20;;
67272;SDS011;54190;49.770;9.250;2023-10-09T01:56:15;6.27;;;3.63;;
67272;SDS011;54190;49.770;9.250;2023-10-09T01:58:41;7.10;;;4.00;;
67272;SDS011;54190;49.770;9.250;2023-10-09T02:01:10;6.80;;;3.90;;
67272;SDS011;54190;49.770;9.250;2023-10-09T02:03:37;6.70;;;4.17;;
67272;SDS011;54190;49.770;9.250;2023-10-09T02:06:07;5.87;;;3.53;;
67272;SDS011;54190;49.770;9.250;2023-10-09T02:08:53;7.77;;;4.17;;
67272;SDS011;54190;49.770;9.250;2023-10-09T02:11:19;6.00;;;3.37;;
67272;SDS011;54190;49.770;9.250;2023-10-09T02:13:50;4.60;;;2.87;;
67272;SDS011;54190;49.770;9.250;2023-10-09T02:16:26;5.70;;;3.60;;
67272;SDS011;54190;49.770;9.250;2023-10-09T02:18:55;6.47;;;3.40;;
67272;SDS011;54190;49.770;9.250;2023-10-09T02:21:33;4.90;;;3.13;;
67272;SDS011;54190;49.770;9.250;2023-10-09T02:24:00;5.67;;;3.50;;
67272;SDS011;54190;49.770;9.250;2023-10-09T02:26:32;5.60;;;3.50;;
67272;SDS011;54190;49.770;9.250;2023-10-09T02:29:18;4.93;;;3.43;;
67272;SDS011;54190;49.770;9.250;2023-10-09T02:31:48;5.50;;;3.20;;
67272;SDS011;54190;49.770;9.250;2023-10-09T02:34:19;5.10;;;3.57;;
67272;SDS011;54190;49.770;9.250;2023-10-09T02:36:50;4.93;;;3.00;;
67272;SDS011;54190;49.770;9.250;2023-10-09T02:39:25;6.47;;;3.80;;
67272;SDS011;54190;49.770;9.250;2023-10-09T02:41:51;5.70;;;3.37;;
67272;SDS011;54190;49.770;9.250;2023-10-09T02:44:44;6.80;;;3.13;;
67272;SDS011;54190;49.770;9.250;2023-10-09T02:47:15;6.17;;;3.63;;
67272;SDS011;54190;49.770;9.250;2023-10-09T02:49:54;5.10;;;3.10;;
67272;SDS011;54190;49.770;9.250;2023-10-09T02:52:25;4.33;;;2.53;;
67272;SDS011;54190;49.770;9.250;2023-10-09T02:54:57;4.50;;;3.00;;
67272;SDS011;54190;49.770;9.250;2023-10-09T02:57:32;4.80;;;2.80;;
67272;SDS011;54190;49.770;9.250;2023-10-09T03:00:07;4.17;;;2.77;;
67272;SDS011;54190;49.770;9.250;2023-10-09T03:02:59;4.93;;;3.20;;
67272;SDS011;54190;49.770;9.250;2023-10-09T03:05:25;5.90;;;3.60;;
67272;SDS011;54190;49.770;9.250;2023-10-09T03:07:54;3.93;;;2.70;;
67272;SDS011;54190;49.770;9.250;2023-10-09T03:10:23;5.07;;;3.07;;
67272;SDS011;54190;49.770;9.250;2023-10-09T03:12:50;5.57;;;3.60;;
67272;SDS011;54190;49.770;9.250;2023-10-09T03:15:19;4.67;;;2.50;;
67272;SDS011;54190;49.770;9.250;2023-10-09T03:17:46;5.00;;;2.93;;
67272;SDS011;54190;49.770;9.250;2023-10-09T03:20:14;5.67;;;3.20;;
67272;SDS011;54190;49.770;9.250;2023-10-09T03:22:44;6.57;;;3.23;;
67272;SDS011;54190;49.770;9.250;2023-10-09T03:25:12;6.20;;;3.63;;
67272;SDS011;54190;49.770;9.250;2023-10-09T03:27:42;5.50;;;3.37;;
67272;SDS011;54190;49.770;9.250;2023-10-09T03:30:15;4.10;;;2.93;;
67272;SDS011;54190;49.770;9.250;2023-10-09T03:32:45;4.70;;;3.03;;
67272;SDS011;54190;49.770;9.250;2023-10-09T03:35:16;5.90;;;3.47;;
67272;SDS011;54190;49.770;9.250;2023-10-09T03:37:58;6.00;;;3.50;;
67272;SDS011;54190;49.770;9.250;2023-10-09T03:40:36;5.23;;;2.90;;
67272;SDS011;54190;49.770;9.250;2023-10-09T03:43:09;6.63;;;3.53;;
67272;SDS011;54190;49.770;9.250;2023-10-09T03:45:39;6.10;;;2.90;;
67272;SDS011;54190;49.770;9.250;2023-10-09T03:48:11;3.90;;;2.57;;
67272;SDS011;54190;49.770;9.250;2023-10-09T03:50:47;6.60;;;2.77;;
67272;SDS011;54190;49.770;9.250;2023-10-09T03:53:13;6.10;;;2.67;;
67272;SDS011;54190;49.770;9.250;2023-10-09T03:55:40;5.20;;;3.00;;
67272;SDS011;54190;49.770;9.250;2023-10-09T03:58:07;7.87;;;3.33;;
67272;SDS011;54190;49.770;9.250;2023-10-09T04:00:36;6.10;;;3.23;;
67272;SDS011;54190;49.770;9.250;2023-10-09T04:03:14;6.47;;;3.30;;
67272;SDS011;54190;49.770;9.250;2023-10-09T04:05:40;4.87;;;2.90;;
67272;SDS011;54190;49.770;9.250;2023-10-09T04:08:11;5.47;;;3.27;;
67272;SDS011;54190;49.770;9.250;2023-10-09T04:10:39;5.30;;;3.17;;
67272;SDS011;54190;49.770;9.250;2023-10-09T04:13:17;4.60;;;3.03;;
67272;SDS011;54190;49.770;9.250;2023-10-09T04:15:48;4.60;;;2.70;;
67272;SDS011;54190;49.770;9.250;2023-10-09T04:18:15;4.63;;;2.90;;
67272;SDS011;54190;49.770;9.250;2023-10-09T04:20:44;6.00;;;3.13;;
67272;SDS011;54190;49.770;9.250;2023-10-09T04:23:32;8.83;;;3.87;;
67272;SDS011;54190;49.770;9.250;2023-10-09T04:26:00;5.00;;;3.00;;
67272;SDS011;54190;49.770;9.250;2023-10-09T04:28:35;5.70;;;3.13;;
67272;SDS011;54190;49.770;9.250;2023-10-09T04:31:02;5.93;;;3.20;;
67272;SDS011;54190;49.770;9.250;2023-10-09T04:33:31;4.87;;;3.03;;
67272;SDS011;54190;49.770;9.250;2023-10-09T04:36:06;5.30;;;3.00;;
67272;SDS011;54190;49.770;9.250;2023-10-09T04:38:48;4.90;;;2.87;;
67272;SDS011;54190;49.770;9.250;2023-10-09T04:41:40;5.00;;;3.17;;
67272;SDS011;54190;49.770;9.250;2023-10-09T04:44:08;5.60;;;2.97;;
67272;SDS011;54190;49.770;9.250;2023-10-09T04:46:47;5.40;;;2.77;;
67272;SDS011;54190;49.770;9.250;2023-10-09T04:49:41;7.83;;;3.13;;
67272;SDS011;54190;49.770;9.250;2023-10-09T04:52:13;5.37;;;2.77;;
67272;SDS011;54190;49.770;9.250;2023-10-09T04:54:50;5.13;;;3.30;;
67272;SDS011;54190;49.770;9.250;2023-10-09T04:57:31;6.43;;;2.93;;
67272;SDS011;54190;49.770;9.250;2023-10-09T05:00:04;5.80;;;3.20;;
67272;SDS011;54190;49.770;9.250;2023-10-09T05:02:49;4.33;;;2.93;;
67272;SDS011;54190;49.770;9.250;2023-10-09T05:05:37;5.90;;;2.80;;
67272;SDS011;54190;49.770;9.250;2023-10-09T05:08:16;7.93;;;3.47;;
67272;SDS011;54190;49.770;9.250;2023-10-09T05:11:01;5.23;;;3.07;;
67272;SDS011;54190;49.770;9.250;2023-10-09T05:13:29;6.70;;;3.97;;
67272;SDS011;54190;49.770;9.250;2023-10-09T05:16:05;5.03;;;2.77;;
67272;SDS011;54190;49.770;9.250;2023-10-09T05:18:57;4.60;;;3.00;;
67272;SDS011;54190;49.770;9.250;2023-10-09T05:21:35;5.67;;;3.40;;
67272;SDS011;54190;49.770;9.250;2023-10-09T05:24:09;5.67;;;3.07;;
67272;SDS011;54190;49.770;9.250;2023-10-09T05:26:42;6.10;;;3.03;;
67272;SDS011;54190;49.770;9.250;2023-10-09T05:29:15;6.93;;;3.57;;
67272;SDS011;54190;49.770;9.250;2023-10-09T05:34:38;5.90;;;3.27;;
67272;SDS011;54190;49.770;9.250;2023-10-09T05:37:23;7.40;;;3.50;;
67272;SDS011;54190;49.770;9.250;2023-10-09T05:39:57;7.77;;;3.40;;
67272;SDS011;54190;49.770;9.250;2023-10-09T05:42:48;6.03;;;3.07;;
67272;SDS011;54190;49.770;9.250;2023-10-09T05:45:32;5.60;;;3.07;;
67272;SDS011;54190;49.770;9.250;2023-10-09T05:48:16;5.10;;;3.27;;
67272;SDS011;54190;49.770;9.250;2023-10-09T05:50:42;6.23;;;3.50;;
67272;SDS011;54190;49.770;9.250;2023-10-09T05:53:38;5.00;;;2.80;;
67272;SDS011;54190;49.770;9.250;2023-10-09T05:56:10;4.60;;;2.90;;
67272;SDS011;54190;49.770;9.250;2023-10-09T05:58:55;6.23;;;3.27;;
67272;SDS011;54190;49.770;9.250;2023-10-09T06:01:39;7.63;;;3.53;;
67272;SDS011;54190;49.770;9.250;2023-10-09T06:04:23;5.00;;;3.13;;
67272;SDS011;54190;49.770;9.250;2023-10-09T06:07:07;6.20;;;3.07;;
67272;SDS011;54190;49.770;9.250;2023-10-09T06:09:38;6.90;;;3.90;;
67272;SDS011;54190;49.770;9.250;2023-10-09T06:12:20;11.17;;;3.30;;
67272;SDS011;54190;49.770;9.250;2023-10-09T06:14:58;4.90;;;3.00;;
67272;SDS011;54190;49.770;9.250;2023-10-09T06:17:46;5.53;;;3.13;;
67272;SDS011;54190;49.770;9.250;2023-10-09T06:20:25;7.53;;;3.30;;
67272;SDS011;54190;49.770;9.250;2023-10-09T06:23:26;5.03;;;3.33;;
67272;SDS011;54190;49.770;9.250;2023-10-09T06:26:11;6.20;;;3.67;;
67272;SDS011;54190;49.770;9.250;2023-10-09T06:28:49;5.60;;;3.63;;
67272;SDS011;54190;49.770;9.250;2023-10-09T06:31:35;8.30;;;4.43;;
67272;SDS011;54190;49.770;9.250;2023-10-09T06:34:19;6.00;;;3.60;;
67272;SDS011;54190;49.770;9.250;2023-10-09T06:36:47;5.77;;;3.20;;
67272;SDS011;54190;49.770;9.250;2023-10-09T06:39:18;5.60;;;3.20;;
67272;SDS011;54190;49.770;9.250;2023-10-09T06:42:03;5.30;;;3.50;;
67272;SDS011;54190;49.770;9.250;2023-10-09T06:44:54;7.50;;;3.67;;
67272;SDS011;54190;49.770;9.250;2023-10-09T06:47:20;4.17;;;3.13;;
67272;SDS011;54190;49.770;9.250;2023-10-09T06:49:49;6.37;;;3.50;;
67272;SDS011;54190;49.770;9.250;2023-10-09T06:52:34;7.30;;;3.80;;
67272;SDS011;54190;49.770;9.250;2023-10-09T06:55:19;5.63;;;3.23;;
67272;SDS011;54190;49.770;9.250;2023-10-09T06:57:45;6.90;;;3.77;;
67272;SDS011;54190;49.770;9.250;2023-10-09T07:00:14;5.57;;;3.10;;
67272;SDS011;54190;49.770;9.250;2023-10-09T07:03:00;5.27;;;3.03;;
67272;SDS011;54190;49.770;9.250;2023-10-09T07:05:36;7.53;;;3.60;;
67272;SDS011;54190;49.770;9.250;2023-10-09T07:08:23;5.73;;;3.13;;
67272;SDS011;54190;49.770;9.250;2023-10-09T07:11:02;6.20;;;3.30;;
67272;SDS011;54190;49.770;9.250;2023-10-09T07:13:51;5.57;;;3.10;;
67272;SDS011;54190;49.770;9.250;2023-10-09T07:16:23;7.70;;;3.60;;
67272;SDS011;54190;49.770;9.250;2023-10-09T07:18:53;6.07;;;3.40;;
67272;SDS011;54190;49.770;9.250;2023-10-09T07:21:34;6.53;;;3.33;;
67272;SDS011;54190;49.770;9.250;2023-10-09T07:24:01;5.33;;;3.27;;
67272;SDS011;54190;49.770;9.250;2023-10-09T07:26:39;5.27;;;3.50;;
67272;SDS011;54190;49.770;9.250;2023-10-09T07:29:12;6.00;;;3.83;;
67272;SDS011;54190;49.770;9.250;2023-10-09T07:31:42;6.03;;;3.20;;
67272;SDS011;54190;49.770;9.250;2023-10-09T07:34:11;6.07;;;3.20;;
67272;SDS011;54190;49.770;9.250;2023-10-09T07:36:55;6.77;;;3.20;;
67272;SDS011;54190;49.770;9.250;2023-10-09T07:39:29;6.50;;;3.20;;
67272;SDS011;54190;49.770;9.250;2023-10-09T07:42:00;5.80;;;3.17;;
67272;SDS011;54190;49.770;9.250;2023-10-09T07:44:43;5.70;;;2.73;;
67272;SDS011;54190;49.770;9.250;2023-10-09T07:47:18;5.57;;;3.37;;
67272;SDS011;54190;49.770;9.250;2023-10-09T07:50:02;6.17;;;3.67;;
67272;SDS011;54190;49.770;9.250;2023-10-09T07:52:29;5.33;;;3.37;;
67272;SDS011;54190;49.770;9.250;2023-10-09T07:54:54;6.70;;;3.13;;
67272;SDS011;54190;49.770;9.250;2023-10-09T07:57:27;5.00;;;2.77;;
67272;SDS011;54190;49.770;9.250;2023-10-09T08:00:03;5.57;;;3.33;;
67272;SDS011;54190;49.770;9.250;2023-10-09T08:02:58;6.60;;;3.70;;
67272;SDS011;54190;49.770;9.250;2023-10-09T08:05:25;5.20;;;3.50;;
67272;SDS011;54190;49.770;9.250;2023-10-09T08:07:58;5.90;;;4.07;;
67272;SDS011;54190;49.770;9.250;2023-10-09T08:10:44;6.87;;;3.60;;
67272;SDS011;54190;49.770;9.250;2023-10-09T08:13:29;8.97;;;3.60;;
67272;SDS011;54190;49.770;9.250;2023-10-09T08:16:30;6.00;;;3.63;;
67272;SDS011;54190;49.770;9.250;2023-10-09T08:19:04;7.57;;;3.10;;
67272;SDS011;54190;49.770;9.250;2023-10-09T08:21:53;6.37;;;3.60;;
67272;SDS011;54190;49.770;9.250;2023-10-09T08:24:37;5.47;;;3.40;;
67272;SDS011;54190;49.770;9.250;2023-10-09T08:27:17;4.67;;;3.00;;
67272;SDS011;54190;49.770;9.250;2023-10-09T08:29:56;4.57;;;2.90;;
67272;SDS011;54190;49.770;9.250;2023-10-09T08:32:40;6.00;;;3.53;;
67272;SDS011;54190;49.770;9.250;2023-10-09T08:35:10;8.00;;;3.73;;
67272;SDS011;54190;49.770;9.250;2023-10-09T08:37:56;7.00;;;3.87;;
67272;SDS011;54190;49.770;9.250;2023-10-09T08:40:33;5.80;;;3.30;;
67272;SDS011;54190;49.770;9.250;2023-10-09T08:43:23;7.67;;;3.63;;
67272;SDS011;54190;49.770;9.250;2023-10-09T08:45:49;7.07;;;4.20;;
67272;SDS011;54190;49.770;9.250;2023-10-09T08:48:18;9.50;;;3.40;;
67272;SDS011;54190;49.770;9.250;2023-10-09T08:50:47;5.23;;;3.50;;
67272;SDS011;54190;49.770;9.250;2023-10-09T08:53:15;6.70;;;3.67;;
67272;SDS011;54190;49.770;9.250;2023-10-09T08:55:42;6.20;;;3.77;;
67272;SDS011;54190;49.770;9.250;2023-10-09T08:58:09;5.63;;;3.23;;
67272;SDS011;54190;49.770;9.250;2023-10-09T09:00:53;6.60;;;4.00;;
67272;SDS011;54190;49.770;9.250;2023-10-09T09:03:21;5.97;;;3.63;;
67272;SDS011;54190;49.770;9.250;2023-10-09T09:05:56;6.97;;;3.33;;
67272;SDS011;54190;49.770;9.250;2023-10-09T09:08:26;6.60;;;3.80;;
67272;SDS011;54190;49.770;9.250;2023-10-09T09:13:32;6.80;;;3.23;;
67272;SDS011;54190;49.770;9.250;2023-10-09T09:15:59;7.00;;;3.10;;
67272;SDS011;54190;49.770;9.250;2023-10-09T09:18:24;6.70;;;3.93;;
67272;SDS011;54190;49.770;9.250;2023-10-09T09:20:57;7.90;;;3.90;;
67272;SDS011;54190;49.770;9.250;2023-10-09T09:23:23;6.73;;;3.50;;
67272;SDS011;54190;49.770;9.250;2023-10-09T09:25:51;6.00;;;3.50;;
67272;SDS011;54190;49.770;9.250;2023-10-09T09:28:24;7.60;;;4.00;;
67272;SDS011;54190;49.770;9.250;2023-10-09T09:30:52;6.40;;;3.80;;
67272;SDS011;54190;49.770;9.250;2023-10-09T09:33:25;6.27;;;3.53;;
67272;SDS011;54190;49.770;9.250;2023-10-09T09:36:04;5.53;;;3.40;;
67272;SDS011;54190;49.770;9.250;2023-10-09T09:38:31;5.57;;;3.50;;
67272;SDS011;54190;49.770;9.250;2023-10-09T09:41:12;8.10;;;4.57;;
67272;SDS011;54190;49.770;9.250;2023-10-09T09:43:49;10.30;;;6.07;;
67272;SDS011;54190;49.770;9.250;2023-10-09T09:46:18;11.63;;;5.70;;
67272;SDS011;54190;49.770;9.250;2023-10-09T09:48:44;9.07;;;5.27;;
67272;SDS011;54190;49.770;9.250;2023-10-09T09:51:12;9.20;;;5.17;;
67272;SDS011;54190;49.770;9.250;2023-10-09T09:53:42;9.30;;;5.30;;
67272;SDS011;54190;49.770;9.250;2023-10-09T09:56:14;9.60;;;5.57;;
67272;SDS011;54190;49.770;9.250;2023-10-09T09:58:45;7.13;;;4.70;;
67272;SDS011;54190;49.770;9.250;2023-10-09T10:01:18;8.67;;;5.20;;
67272;SDS011;54190;49.770;9.250;2023-10-09T10:03:54;7.33;;;4.40;;
67272;SDS011;54190;49.770;9.250;2023-10-09T10:06:26;9.73;;;4.53;;
67272;SDS011;54190;49.770;9.250;2023-10-09T10:08:57;7.40;;;3.97;;
67272;SDS011;54190;49.770;9.250;2023-10-09T10:11:42;7.20;;;4.33;;
67272;SDS011;54190;49.770;9.250;2023-10-09T10:14:09;7.60;;;4.27;;
67272;SDS011;54190;49.770;9.250;2023-10-09T10:17:08;6.17;;;3.83;;
67272;SDS011;54190;49.770;9.250;2023-10-09T10:22:44;8.70;;;3.80;;
67272;SDS011;54190;49.770;9.250;2023-10-09T10:28:23;9.03;;;3.40;;
67272;SDS011;54190;49.770;9.250;2023-10-09T10:30:54;7.90;;;3.83;;
67272;SDS011;54190;49.770;9.250;2023-10-09T10:33:20;8.00;;;3.70;;
67272;SDS011;54190;49.770;9.250;2023-10-09T10:35:48;6.63;;;3.37;;
67272;SDS011;54190;49.770;9.250;2023-10-09T10:38:23;7.83;;;3.50;;
67272;SDS011;54190;49.770;9.250;2023-10-09T10:43:37;8.40;;;4.50;;
67272;SDS011;54190;49.770;9.250;2023-10-09T10:46:18;6.67;;;4.30;;
67272;SDS011;54190;49.770;9.250;2023-10-09T10:49:03;5.73;;;3.70;;
67272;SDS011;54190;49.770;9.250;2023-10-09T10:51:38;6.93;;;3.77;;
67272;SDS011;54190;49.770;9.250;2023-10-09T10:54:04;6.00;;;3.47;;
67272;SDS011;54190;49.770;9.250;2023-10-09T10:56:50;6.17;;;2.87;;
67272;SDS011;54190;49.770;9.250;2023-10-09T10:59:17;5.03;;;3.30;;
67272;SDS011;54190;49.770;9.250;2023-10-09T11:01:51;5.23;;;3.27;;
67272;SDS011;54190;49.770;9.250;2023-10-09T11:04:27;5.03;;;3.03;;
67272;SDS011;54190;49.770;9.250;2023-10-09T11:06:57;6.87;;;3.13;;
67272;SDS011;54190;49.770;9.250;2023-10-09T11:09:47;5.50;;;3.10;;
67272;SDS011;54190;49.770;9.250;2023-10-09T11:12:30;7.53;;;2.90;;
67272;SDS011;54190;49.770;9.250;2023-10-09T11:15:15;5.87;;;3.13;;
67272;SDS011;54190;49.770;9.250;2023-10-09T11:18:03;6.10;;;3.30;;
67272;SDS011;54190;49.770;9.250;2023-10-09T11:20:35;6.90;;;3.00;;
67272;SDS011;54190;49.770;9.250;2023-10-09T11:23:05;4.20;;;2.50;;
67272;SDS011;54190;49.770;9.250;2023-10-09T11:25:38;5.87;;;2.77;;
67272;SDS011;54190;49.770;9.250;2023-10-09T11:28:21;7.80;;;3.30;;
67272;SDS011;54190;49.770;9.250;2023-10-09T11:31:11;10.03;;;2.50;;
67272;SDS011;54190;49.770;9.250;2023-10-09T11:33:47;5.87;;;3.10;;
67272;SDS011;54190;49.770;9.250;2023-10-09T11:36:20;9.13;;;3.23;;
67272;SDS011;54190;49.770;9.250;2023-10-09T11:38:56;6.93;;;3.30;;
67272;SDS011;54190;49.770;9.250;2023-10-09T11:41:42;5.47;;;3.00;;
67272;SDS011;54190;49.770;9.250;2023-10-09T11:44:09;7.23;;;3.37;;
67272;SDS011;54190;49.770;9.250;2023-10-09T11:46:58;5.17;;;2.43;;
67272;SDS011;54190;49.770;9.250;2023-10-09T11:49:52;10.10;;;2.83;;
67272;SDS011;54190;49.770;9.250;2023-10-09T11:52:36;6.60;;;3.20;;
67272;SDS011;54190;49.770;9.250;2023-10-09T11:55:22;5.43;;;2.80;;
67272;SDS011;54190;49.770;9.250;2023-10-09T11:57:50;6.23;;;3.10;;
67272;SDS011;54190;49.770;9.250;2023-10-09T12:00:16;5.13;;;3.10;;
67272;SDS011;54190;49.770;9.250;2023-10-09T12:02:54;5.60;;;2.70;;
67272;SDS011;54190;49.770;9.250;2023-10-09T12:05:20;6.20;;;2.97;;
67272;SDS011;54190;49.770;9.250;2023-10-09T12:07:48;6.90;;;2.53;;
67272;SDS011;54190;49.770;9.250;2023-10-09T12:10:22;5.67;;;2.73;;
67272;SDS011;54190;49.770;9.250;2023-10-09T12:12:51;4.60;;;2.37;;
67272;SDS011;54190;49.770;9.250;2023-10-09T12:15:18;4.80;;;2.97;;
67272;SDS011;54190;49.770;9.250;2023-10-09T12:17:44;4.73;;;2.77;;
67272;SDS011;54190;49.770;9.250;2023-10-09T12:20:15;7.00;;;2.77;;
67272;SDS011;54190;49.770;9.250;2023-10-09T12:23:00;4.70;;;2.53;;
67272;SDS011;54190;49.770;9.250;2023-10-09T12:25:34;7.10;;;2.57;;
67272;SDS011;54190;49.770;9.250;2023-10-09T12:28:00;7.03;;;2.90;;
67272;SDS011;54190;49.770;9.250;2023-10-09T12:30:30;6.63;;;2.70;;
67272;SDS011;54190;49.770;9.250;2023-10-09T12:33:04;4.27;;;2.67;;
67272;SDS011;54190;49.770;9.250;2023-10-09T12:35:35;5.17;;;2.30;;
67272;SDS011;54190;49.770;9.250;2023-10-09T12:38:03;4.83;;;2.70;;
67272;SDS011;54190;49.770;9.250;2023-10-09T12:40:33;6.40;;;3.10;;
67272;SDS011;54190;49.770;9.250;2023-10-09T12:42:59;6.47;;;3.10;;
67272;SDS011;54190;49.770;9.250;2023-10-09T12:45:25;6.53;;;3.17;;
67272;SDS011;54190;49.770;9.250;2023-10-09T12:47:55;6.00;;;3.10;;
67272;SDS011;54190;49.770;9.250;2023-10-09T12:50:27;3.23;;;2.00;;
67272;SDS011;54190;49.770;9.250;2023-10-09T12:52:54;6.33;;;2.90;;
67272;SDS011;54190;49.770;9.250;2023-10-09T12:55:20;6.10;;;2.90;;
67272;SDS011;54190;49.770;9.250;2023-10-09T12:57:46;4.20;;;2.57;;
67272;SDS011;54190;49.770;9.250;2023-10-09T13:00:13;6.57;;;3.20;;
67272;SDS011;54190;49.770;9.250;2023-10-09T13:02:50;5.70;;;2.83;;
67272;SDS011;54190;49.770;9.250;2023-10-09T13:05:16;4.70;;;2.60;;
67272;SDS011;54190;49.770;9.250;2023-10-09T13:07:51;5.20;;;2.60;;
67272;SDS011;54190;49.770;9.250;2023-10-09T13:10:26;6.20;;;3.03;;
67272;SDS011;54190;49.770;9.250;2023-10-09T13:12:56;5.47;;;2.80;;
67272;SDS011;54190;49.770;9.250;2023-10-09T13:15:22;6.67;;;3.20;;
67272;SDS011;54190;49.770;9.250;2023-10-09T13:17:48;5.67;;;2.93;;
67272;SDS011;54190;49.770;9.250;2023-10-09T13:20:13;5.67;;;3.03;;
67272;SDS011;54190;49.770;9.250;2023-10-09T13:22:39;3.97;;;2.53;;
67272;SDS011;54190;49.770;9.250;2023-10-09T13:25:09;5.93;;;2.60;;
67272;SDS011;54190;49.770;9.250;2023-10-09T13:27:50;6.13;;;2.87;;
67272;SDS011;54190;49.770;9.250;2023-10-09T13:30:16;4.47;;;2.40;;
67272;SDS011;54190;49.770;9.250;2023-10-09T13:32:50;5.47;;;3.00;;
67272;SDS011;54190;49.770;9.250;2023-10-09T13:35:17;7.70;;;3.30;;
67272;SDS011;54190;49.770;9.250;2023-10-09T13:37:44;5.53;;;2.90;;
67272;SDS011;54190;49.770;9.250;2023-10-09T13:40:22;5.67;;;2.90;;
67272;SDS011;54190;49.770;9.250;2023-10-09T13:42:54;4.60;;;2.80;;
67272;SDS011;54190;49.770;9.250;2023-10-09T13:45:27;5.50;;;3.30;;
67272;SDS011;54190;49.770;9.250;2023-10-09T13:47:54;5.80;;;2.83;;
67272;SDS011;54190;49.770;9.250;2023-10-09T13:50:23;5.53;;;3.03;;
67272;SDS011;54190;49.770;9.250;2023-10-09T13:52:49;4.23;;;2.47;;
67272;SDS011;54190;49.770;9.250;2023-10-09T13:55:19;7.00;;;3.37;;
67272;SDS011;54190;49.770;9.250;2023-10-09T13:57:44;5.83;;;3.07;;
67272;SDS011;54190;49.770;9.250;2023-10-09T14:00:12;6.23;;;3.13;;
67272;SDS011;54190;49.770;9.250;2023-10-09T14:02:42;5.43;;;2.73;;
67272;SDS011;54190;49.770;9.250;2023-10-09T14:05:10;5.40;;;2.93;;
67272;SDS011;54190;49.770;9.250;2023-10-09T14:07:35;5.80;;;2.90;;
67272;SDS011;54190;49.770;9.250;2023-10-09T14:10:02;6.00;;;3.10;;
67272;SDS011;54190;49.770;9.250;2023-10-09T14:12:43;6.00;;;3.13;;
67272;SDS011;54190;49.770;9.250;2023-10-09T14:15:09;4.87;;;2.83;;
67272;SDS011;54190;49.770;9.250;2023-10-09T14:17:42;5.80;;;3.20;;
67272;SDS011;54190;49.770;9.250;2023-10-09T14:20:08;4.63;;;2.80;;
67272;SDS011;54190;49.770;9.250;2023-10-09T14:22:52;6.37;;;3.33;;
67272;SDS011;54190;49.770;9.250;2023-10-09T14:25:19;8.70;;;4.20;;
67272;SDS011;54190;49.770;9.250;2023-10-09T14:27:46;5.43;;;2.90;;
67272;SDS011;54190;49.770;9.250;2023-10-09T14:30:18;6.30;;;3.10;;
67272;SDS011;54190;49.770;9.250;2023-10-09T14:33:10;5.80;;;3.40;;
67272;SDS011;54190;49.770;9.250;2023-10-09T14:35:40;4.83;;;2.80;;
67272;SDS011;54190;49.770;9.250;2023-10-09T14:38:07;8.27;;;3.10;;
67272;SDS011;54190;49.770;9.250;2023-10-09T14:40:37;4.87;;;3.10;;
67272;SDS011;54190;49.770;9.250;2023-10-09T14:43:09;6.07;;;3.20;;
67272;SDS011;54190;49.770;9.250;2023-10-09T14:45:50;4.80;;;2.80;;
67272;SDS011;54190;49.770;9.250;2023-10-09T14:48:18;5.70;;;3.00;;
67272;SDS011;54190;49.770;9.250;2023-10-09T14:50:51;4.90;;;2.87;;
67272;SDS011;54190;49.770;9.250;2023-10-09T14:53:23;6.10;;;2.70;;
67272;SDS011;54190;49.770;9.250;2023-10-09T14:55:58;4.90;;;2.87;;
67272;SDS011;54190;49.770;9.250;2023-10-09T14:58:26;6.33;;;3.20;;
67272;SDS011;54190;49.770;9.250;2023-10-09T15:00:54;6.40;;;2.80;;
67272;SDS011;54190;49.770;9.250;2023-10-09T15:03:20;4.57;;;2.50;;
67272;SDS011;54190;49.770;9.250;2023-10-09T15:05:47;5.97;;;3.10;;
67272;SDS011;54190;49.770;9.250;2023-10-09T15:08:12;4.67;;;2.83;;
67272;SDS011;54190;49.770;9.250;2023-10-09T15:10:48;6.80;;;3.50;;
67272;SDS011;54190;49.770;9.250;2023-10-09T15:13:17;10.93;;;3.20;;
67272;SDS011;54190;49.770;9.250;2023-10-09T15:15:43;6.27;;;3.10;;
67272;SDS011;54190;49.770;9.250;2023-10-09T15:18:10;4.93;;;2.67;;
67272;SDS011;54190;49.770;9.250;2023-10-09T15:20:39;6.07;;;3.40;;
67272;SDS011;54190;49.770;9.250;2023-10-09T15:23:05;5.07;;;2.77;;
67272;SDS011;54190;49.770;9.250;2023-10-09T15:25:34;6.87;;;3.03;;
67272;SDS011;54190;49.770;9.250;2023-10-09T15:28:04;7.20;;;2.90;;
67272;SDS011;54190;49.770;9.250;2023-10-09T15:30:34;5.60;;;3.23;;
67272;SDS011;54190;49.770;9.250;2023-10-09T15:33:04;5.60;;;3.17;;
67272;SDS011;54190;49.770;9.250;2023-10-09T15:35:30;5.90;;;3.20;;
67272;SDS011;54190;49.770;9.250;2023-10-09T15:38:02;7.63;;;3.40;;
67272;SDS011;54190;49.770;9.250;2023-10-09T15:40:29;8.10;;;3.03;;
67272;SDS011;54190;49.770;9.250;2023-10-09T15:42:58;7.67;;;4.33;;
67272;SDS011;54190;49.770;9.250;2023-10-09T15:45:25;6.17;;;3.53;;
67272;SDS011;54190;49.770;9.250;2023-10-09T15:47:53;7.40;;;3.83;;